Time;durP1;ratioP1;P1;durP2;ratioP2;P2;SDS_P1;SDS_P2;PMS_P1;PMS_P2;Temp;Humidity;BMP_temperature;BMP_pressure;BME280_temperature;BME280_humidity;BME280_pressure;Samples;Min_cycle;Max_cycle;Signal;HPM_P1;HPM_P2
2023/05/23 00:01:35;;;;;;;7.30;6.03;;;17.40;99.90;;;;;;5073136;28;20043;-82
2023/05/23 00:04:01;;;;;;;9.88;6.68;;;17.30;99.90;;;;;;5073529;28;20060;-82
2023/05/23 00:06:27;;;;;;;10.52;6.60;;;17.30;99.90;;;;;;5073055;28;20055;-83
2023/05/23 00:08:53;;;;;;;8.80;6.00;;;17.40;99.90;;;;;;5056511;28;20020;-83
2023/05/23 00:11:22;;;;;;;8.13;5.72;;;17.40;99.90;;;;;;5073080;28;20017;-82
2023/05/23 00:13:50;;;;;;;8.02;6.80;;;17.40;99.90;;;;;;5072808;28;20074;-82
2023/05/23 00:16:16;;;;;;;8.65;6.20;;;17.40;99.90;;;;;;5056695;28;20029;-82
2023/05/23 00:18:41;;;;;;;13.00;6.97;;;17.30;99.90;;;;;;5072629;28;20484;-83
2023/05/23 00:21:08;;;;;;;10.82;7.05;;;17.30;99.90;;;;;;5072155;28;20023;-82
2023/05/23 00:23:34;;;;;;;8.50;6.70;;;17.30;99.90;;;;;;5072627;28;20112;-82
2023/05/23 00:26:00;;;;;;;8.85;6.82;;;17.20;99.90;;;;;;5073016;28;20159;-83
2023/05/23 00:28:26;;;;;;;8.52;5.88;;;17.20;99.90;;;;;;5074374;28;20082;-83
2023/05/23 00:30:51;;;;;;;8.48;6.13;;;17.20;99.90;;;;;;5055729;28;20040;-82
2023/05/23 00:33:20;;;;;;;9.55;6.40;;;17.20;99.90;;;;;;5072883;28;20028;-82
2023/05/23 00:35:49;;;;;;;9.50;6.38;;;17.20;99.90;;;;;;5056325;28;20029;-83
2023/05/23 00:38:15;;;;;;;7.75;5.60;;;17.20;99.90;;;;;;5072574;28;20063;-83
2023/05/23 00:40:41;;;;;;;8.13;5.70;;;17.20;99.90;;;;;;5049615;28;20132;-83
2023/05/23 00:43:07;;;;;;;11.25;6.60;;;17.20;99.90;;;;;;5038858;28;20127;-83
2023/05/23 00:45:33;;;;;;;9.18;6.70;;;17.20;99.90;;;;;;5071415;28;20031;-83
2023/05/23 00:47:59;;;;;;;11.95;7.55;;;17.10;99.90;;;;;;5046226;28;20391;-82
2023/05/23 00:50:28;;;;;;;9.00;6.90;;;17.10;99.90;;;;;;5052080;28;20043;-82
2023/05/23 00:52:55;;;;;;;10.30;7.20;;;17.10;99.90;;;;;;5071080;28;20017;-82
2023/05/23 00:55:24;;;;;;;11.77;7.32;;;17.00;99.90;;;;;;5061784;28;20025;-82
2023/05/23 00:57:54;;;;;;;11.43;6.90;;;16.90;99.90;;;;;;5055633;28;20075;-82
2023/05/23 01:00:20;;;;;;;10.85;7.45;;;16.90;99.90;;;;;;5072624;28;20112;-82
2023/05/23 01:02:50;;;;;;;10.77;7.10;;;16.90;99.90;;;;;;5059939;28;20074;-82
2023/05/23 01:05:16;;;;;;;11.77;7.63;;;16.80;99.90;;;;;;5061334;28;20052;-82
2023/05/23 01:07:46;;;;;;;9.65;7.03;;;16.80;99.90;;;;;;5081924;28;20067;-83
2023/05/23 01:10:18;;;;;;;11.38;7.40;;;16.80;99.90;;;;;;5085477;28;20048;-81
2023/05/23 01:13:12;;;;;;;9.80;6.78;;;16.80;99.90;;;;;;5094976;28;20009;-82
2023/05/23 01:16:04;;;;;;;10.15;6.68;;;16.70;99.90;;;;;;5091004;28;20009;-82
2023/05/23 01:19:10;;;;;;;11.90;7.47;;;16.80;99.90;;;;;;5097760;28;20037;-81
2023/05/23 01:21:37;;;;;;;9.88;6.53;;;16.60;99.90;;;;;;5073519;28;20032;-83
2023/05/23 01:24:35;;;;;;;8.77;6.60;;;16.60;99.90;;;;;;5064477;28;20040;-83
2023/05/23 01:27:29;;;;;;;9.55;6.68;;;16.70;99.90;;;;;;5072200;28;20029;-83
2023/05/23 01:29:57;;;;;;;8.98;6.00;;;16.70;99.90;;;;;;5071751;28;20728;-82
2023/05/23 01:32:24;;;;;;;10.45;6.72;;;16.70;99.90;;;;;;5071994;28;20452;-82
2023/05/23 01:34:52;;;;;;;10.40;7.18;;;16.60;99.90;;;;;;5075658;28;20112;-83
2023/05/23 01:37:18;;;;;;;12.13;6.80;;;16.60;99.90;;;;;;5076853;28;20086;-82
2023/05/23 01:39:45;;;;;;;10.32;6.65;;;16.50;99.90;;;;;;5072676;28;20052;-83
2023/05/23 01:42:14;;;;;;;9.98;6.40;;;16.50;99.90;;;;;;5075779;28;20025;-83
2023/05/23 01:44:40;;;;;;;9.65;6.03;;;16.50;99.90;;;;;;5062277;28;20385;-82
2023/05/23 01:47:08;;;;;;;8.50;5.95;;;16.40;99.90;;;;;;5055707;28;20451;-83
2023/05/23 01:49:35;;;;;;;9.93;6.63;;;16.50;99.90;;;;;;5055751;28;20025;-83
2023/05/23 01:52:02;;;;;;;9.25;5.68;;;16.60;99.90;;;;;;5056350;28;20043;-83
2023/05/23 01:54:29;;;;;;;9.98;5.75;;;16.70;99.90;;;;;;5059384;28;20033;-83
2023/05/23 01:56:58;;;;;;;9.27;6.18;;;16.70;99.90;;;;;;5109074;28;20056;-83
2023/05/23 01:59:24;;;;;;;7.53;5.60;;;16.80;99.90;;;;;;5075039;28;20028;-82
2023/05/23 02:01:50;;;;;;;8.30;5.72;;;16.80;99.90;;;;;;5075353;28;20519;-83
2023/05/23 02:04:16;;;;;;;7.53;5.38;;;16.80;99.90;;;;;;5058763;28;20021;-83
2023/05/23 02:06:45;;;;;;;8.07;5.60;;;16.90;99.90;;;;;;5058188;28;20059;-83
2023/05/23 02:09:11;;;;;;;10.20;6.80;;;16.80;99.90;;;;;;5059200;28;20388;-83
2023/05/23 02:11:36;;;;;;;9.60;5.75;;;16.80;99.90;;;;;;5076388;28;20021;-83
2023/05/23 02:14:02;;;;;;;8.52;5.75;;;16.70;99.90;;;;;;5076553;28;20460;-83
2023/05/23 02:16:28;;;;;;;9.02;6.32;;;16.70;99.90;;;;;;5058498;28;20036;-83
2023/05/23 02:18:55;;;;;;;7.65;5.90;;;16.60;99.90;;;;;;5074675;28;20447;-83
2023/05/23 02:21:22;;;;;;;7.65;5.32;;;16.60;99.90;;;;;;5075399;28;20028;-83
2023/05/23 02:23:47;;;;;;;8.88;5.70;;;16.60;99.90;;;;;;5058065;28;20036;-83
2023/05/23 02:26:13;;;;;;;9.02;6.07;;;16.60;99.90;;;;;;5070666;28;20048;-83
2023/05/23 02:28:40;;;;;;;8.07;6.00;;;16.60;99.90;;;;;;5061746;28;20044;-83
2023/05/23 02:31:05;;;;;;;9.93;5.95;;;16.60;99.90;;;;;;5044924;28;20027;-83
2023/05/23 02:33:31;;;;;;;8.02;5.70;;;16.60;99.90;;;;;;5064595;28;20025;-83
2023/05/23 02:35:57;;;;;;;8.48;6.03;;;16.60;99.90;;;;;;5068520;28;20024;-83
2023/05/23 02:38:22;;;;;;;8.95;6.28;;;16.50;99.90;;;;;;5051052;28;20436;-83
2023/05/23 02:40:52;;;;;;;7.85;6.22;;;16.50;99.90;;;;;;5073407;28;20029;-83
2023/05/23 02:43:19;;;;;;;10.30;6.40;;;16.50;99.90;;;;;;5059118;28;20544;-83
2023/05/23 02:45:44;;;;;;;11.50;7.55;;;16.50;99.90;;;;;;5073957;28;20484;-83
2023/05/23 02:48:10;;;;;;;8.70;6.15;;;16.50;99.90;;;;;;5058217;28;20028;-83
2023/05/23 02:50:36;;;;;;;10.00;6.10;;;16.40;99.90;;;;;;5061218;28;20025;-83
2023/05/23 02:53:02;;;;;;;13.00;7.82;;;16.40;99.90;;;;;;5064892;28;20036;-83
2023/05/23 02:55:28;;;;;;;12.55;7.80;;;16.40;99.90;;;;;;5099919;28;20073;-83
2023/05/23 02:57:54;;;;;;;10.30;7.05;;;16.30;99.90;;;;;;5099730;28;20054;-83
2023/05/23 03:00:20;;;;;;;11.20;6.78;;;16.30;99.90;;;;;;5098623;28;20097;-83
2023/05/23 03:02:45;;;;;;;15.00;7.30;;;16.20;99.90;;;;;;5082465;28;20040;-83
2023/05/23 03:05:13;;;;;;;12.98;6.78;;;16.20;99.90;;;;;;5078437;28;20058;-83
2023/05/23 03:07:39;;;;;;;11.55;6.90;;;16.30;99.90;;;;;;5075639;28;20029;-83
2023/05/23 03:10:05;;;;;;;13.52;7.85;;;16.30;99.90;;;;;;5057925;28;20395;-82
2023/05/23 03:12:31;;;;;;;14.90;7.78;;;16.30;99.90;;;;;;5057607;28;20359;-82
2023/05/23 03:14:56;;;;;;;9.52;6.97;;;16.30;99.90;;;;;;5073694;28;20020;-82
2023/05/23 03:17:24;;;;;;;10.65;7.00;;;16.30;99.90;;;;;;5044339;28;20155;-82
2023/05/23 03:19:50;;;;;;;11.95;6.95;;;16.40;99.90;;;;;;5036923;28;20550;-82
2023/05/23 03:22:16;;;;;;;13.05;6.68;;;16.40;99.90;;;;;;5053970;28;20513;-82
2023/05/23 03:24:42;;;;;;;9.15;6.13;;;16.40;99.90;;;;;;5071216;28;20107;-82
2023/05/23 03:27:08;;;;;;;9.77;6.13;;;16.50;99.90;;;;;;5073200;28;20020;-82
2023/05/23 03:29:33;;;;;;;9.85;6.50;;;16.50;99.90;;;;;;5074732;28;20028;-82
2023/05/23 03:31:59;;;;;;;9.70;5.63;;;16.50;99.90;;;;;;5073314;28;20513;-82
2023/05/23 03:34:25;;;;;;;7.07;5.32;;;16.50;99.90;;;;;;5073737;28;20067;-82
2023/05/23 03:36:51;;;;;;;8.75;5.35;;;16.40;99.90;;;;;;5056633;28;20419;-82
2023/05/23 03:39:17;;;;;;;6.97;4.80;;;16.30;99.90;;;;;;5073570;28;20463;-82
2023/05/23 03:41:43;;;;;;;8.80;4.90;;;16.30;99.90;;;;;;5072626;28;20028;-82
2023/05/23 03:44:09;;;;;;;5.88;4.20;;;16.30;99.90;;;;;;5073329;28;20025;-82
2023/05/23 03:46:34;;;;;;;6.20;4.35;;;16.20;99.90;;;;;;5074704;28;20400;-82
2023/05/23 03:49:00;;;;;;;8.68;4.97;;;16.20;99.90;;;;;;5073108;28;20384;-82
2023/05/23 03:51:27;;;;;;;7.15;4.28;;;16.20;99.90;;;;;;5073398;28;20116;-82
2023/05/23 03:53:52;;;;;;;5.68;4.35;;;16.20;99.90;;;;;;5073048;28;20354;-82
2023/05/23 03:56:18;;;;;;;8.15;5.30;;;16.20;99.90;;;;;;5072034;28;20139;-82
2023/05/23 03:58:44;;;;;;;8.43;5.18;;;16.20;99.90;;;;;;5073090;28;20050;-83
2023/05/23 04:01:10;;;;;;;6.53;4.97;;;16.10;99.90;;;;;;5052286;28;20094;-83
2023/05/23 04:03:36;;;;;;;9.20;5.25;;;16.10;99.90;;;;;;5055518;28;20060;-83
2023/05/23 04:06:02;;;;;;;11.02;6.30;;;16.10;99.90;;;;;;5065734;28;20032;-83
2023/05/23 04:08:28;;;;;;;10.98;5.97;;;16.00;99.90;;;;;;5056563;28;20526;-83
2023/05/23 04:10:54;;;;;;;12.48;6.22;;;16.00;99.90;;;;;;5056316;28;20051;-83
2023/05/23 04:13:20;;;;;;;9.57;6.72;;;16.00;99.90;;;;;;5073223;28;20536;-83
2023/05/23 04:15:51;;;;;;;11.98;6.22;;;16.00;99.90;;;;;;5073092;28;20038;-83
2023/05/23 04:18:17;;;;;;;9.80;5.78;;;16.00;99.90;;;;;;5056811;28;20060;-83
2023/05/23 04:20:42;;;;;;;9.93;5.75;;;16.00;99.90;;;;;;5054218;28;20029;-83
2023/05/23 04:23:08;;;;;;;8.85;6.13;;;16.00;99.90;;;;;;5052711;28;20021;-83
2023/05/23 04:25:34;;;;;;;9.85;5.53;;;15.90;99.90;;;;;;5084566;28;20481;-83
2023/05/23 04:28:00;;;;;;;12.38;6.18;;;16.00;99.90;;;;;;5074491;28;20025;-83
2023/05/23 04:30:29;;;;;;;7.63;5.22;;;16.00;99.90;;;;;;5070284;28;20033;-83
2023/05/23 04:32:56;;;;;;;8.73;5.32;;;16.00;99.90;;;;;;5053223;28;20036;-83
2023/05/23 04:35:22;;;;;;;10.18;5.93;;;16.00;99.90;;;;;;5054084;28;20098;-83
2023/05/23 04:37:48;;;;;;;11.30;6.00;;;16.10;99.90;;;;;;5080286;28;20028;-83
2023/05/23 04:40:14;;;;;;;11.02;6.20;;;16.10;99.90;;;;;;5089808;28;20013;-86
2023/05/23 04:42:43;;;;;;;10.20;5.63;;;16.00;99.90;;;;;;5081419;28;20014;-86
2023/05/23 04:45:11;;;;;;;12.45;6.57;;;16.10;99.90;;;;;;5089896;28;20012;-86
2023/05/23 04:47:37;;;;;;;11.68;5.82;;;16.10;99.90;;;;;;5082024;28;20023;-86
2023/05/23 04:50:04;;;;;;;14.27;7.03;;;16.20;99.90;;;;;;5086625;28;20089;-85
2023/05/23 04:52:32;;;;;;;13.45;7.15;;;16.20;99.90;;;;;;5075659;28;20097;-85
2023/05/23 04:54:57;;;;;;;12.75;6.65;;;16.20;99.90;;;;;;5049555;28;20032;-87
2023/05/23 04:57:23;;;;;;;11.25;6.70;;;16.20;99.90;;;;;;5047885;28;20029;-86
2023/05/23 04:59:49;;;;;;;11.73;6.22;;;16.10;99.90;;;;;;5063019;28;20040;-86
2023/05/23 05:02:15;;;;;;;10.18;6.00;;;16.10;99.90;;;;;;5061040;28;20055;-87
2023/05/23 05:04:41;;;;;;;12.70;6.28;;;16.10;99.90;;;;;;5099185;28;20017;-87
2023/05/23 05:07:06;;;;;;;15.75;6.47;;;16.20;99.90;;;;;;5056034;28;20159;-87
2023/05/23 05:09:32;;;;;;;16.70;7.20;;;16.10;99.90;;;;;;5070125;28;20047;-87
2023/05/23 05:11:58;;;;;;;15.02;7.10;;;16.00;99.90;;;;;;5055251;28;20033;-87
2023/05/23 05:14:25;;;;;;;14.07;7.35;;;16.00;99.90;;;;;;5064383;28;20036;-87
2023/05/23 05:16:53;;;;;;;11.95;6.55;;;15.90;99.90;;;;;;5069476;28;20038;-88
2023/05/23 05:19:27;;;;;;;14.65;6.88;;;15.80;99.90;;;;;;5042465;28;20056;-87
2023/05/23 05:21:53;;;;;;;12.70;7.22;;;15.80;99.90;;;;;;5062671;28;20021;-87
2023/05/23 05:24:21;;;;;;;13.18;6.60;;;15.70;99.90;;;;;;5064165;28;20024;-87
2023/05/23 05:26:47;;;;;;;12.60;6.85;;;15.70;99.90;;;;;;5059828;28;20029;-87
2023/05/23 05:29:13;;;;;;;11.73;6.28;;;15.70;99.90;;;;;;5042359;28;20124;-87
2023/05/23 05:31:39;;;;;;;12.75;7.35;;;15.70;99.90;;;;;;5055964;28;20039;-86
2023/05/23 05:34:07;;;;;;;15.60;6.72;;;15.60;99.90;;;;;;5063023;28;20021;-86
2023/05/23 05:36:33;;;;;;;14.45;7.28;;;15.60;99.90;;;;;;5070363;28;20024;-88
2023/05/23 05:39:02;;;;;;;12.30;6.60;;;15.50;99.90;;;;;;5091798;28;20362;-87
2023/05/23 05:41:27;;;;;;;14.80;6.35;;;15.50;99.90;;;;;;5099547;28;20048;-85
2023/05/23 05:43:53;;;;;;;13.73;6.35;;;15.40;99.90;;;;;;5062311;28;20057;-85
2023/05/23 05:46:19;;;;;;;12.05;6.15;;;15.40;99.90;;;;;;5052680;28;20056;-85
2023/05/23 05:48:45;;;;;;;14.13;5.93;;;15.30;99.90;;;;;;5063477;28;20032;-85
2023/05/23 05:51:11;;;;;;;15.32;6.20;;;15.40;99.90;;;;;;5071636;28;20031;-86
2023/05/23 05:53:36;;;;;;;14.95;5.68;;;15.30;99.90;;;;;;5054677;28;20473;-87
2023/05/23 05:56:05;;;;;;;10.38;5.28;;;15.30;99.90;;;;;;5071822;28;20486;-86
2023/05/23 05:58:30;;;;;;;15.80;6.25;;;15.30;99.90;;;;;;5071760;28;20115;-86
2023/05/23 06:00:57;;;;;;;17.30;6.25;;;15.20;99.90;;;;;;5071800;28;20179;-86
2023/05/23 06:03:24;;;;;;;14.15;5.70;;;15.20;99.90;;;;;;5071445;28;20040;-86
2023/05/23 06:05:49;;;;;;;12.50;5.70;;;15.10;99.90;;;;;;5069245;28;20079;-86
2023/05/23 06:08:15;;;;;;;11.73;5.18;;;15.00;99.90;;;;;;5071641;28;20024;-86
2023/05/23 06:10:43;;;;;;;10.80;4.80;;;15.00;99.90;;;;;;5071723;28;20519;-87
2023/05/23 06:13:09;;;;;;;10.00;5.60;;;15.00;99.90;;;;;;5059112;28;20082;-86
2023/05/23 06:15:35;;;;;;;11.57;5.13;;;14.90;99.90;;;;;;5052378;28;20044;-87
2023/05/23 06:18:00;;;;;;;10.23;5.22;;;15.00;99.90;;;;;;5067288;28;20480;-86
2023/05/23 06:20:27;;;;;;;9.80;4.57;;;15.00;99.90;;;;;;5059128;28;20101;-86
2023/05/23 06:22:53;;;;;;;12.50;5.03;;;14.90;99.90;;;;;;5097621;28;20029;-87
2023/05/23 06:25:18;;;;;;;9.15;5.13;;;15.00;99.90;;;;;;5100644;28;20088;-86
2023/05/23 06:27:45;;;;;;;11.45;5.15;;;14.90;99.90;;;;;;5100552;28;20019;-85
2023/05/23 06:30:13;;;;;;;11.68;5.60;;;14.90;99.90;;;;;;5083165;28;20038;-85
2023/05/23 06:32:40;;;;;;;12.48;5.10;;;14.90;99.90;;;;;;5066354;28;20086;-86
2023/05/23 06:35:06;;;;;;;10.73;5.30;;;14.80;99.90;;;;;;5062914;28;20432;-86
2023/05/23 06:37:32;;;;;;;12.88;5.97;;;14.70;99.90;;;;;;5072425;28;20346;-86
2023/05/23 06:39:57;;;;;;;15.80;5.88;;;14.70;99.90;;;;;;5055785;28;20029;-85
2023/05/23 06:42:23;;;;;;;12.18;5.00;;;14.60;99.90;;;;;;5058072;28;20032;-85
2023/05/23 06:44:49;;;;;;;11.13;4.93;;;14.60;99.90;;;;;;5076568;28;20035;-84
2023/05/23 06:47:14;;;;;;;12.23;5.35;;;14.70;99.90;;;;;;5078249;28;20025;-86
2023/05/23 06:49:42;;;;;;;12.63;5.15;;;14.60;99.90;;;;;;5076168;28;20024;-86
2023/05/23 06:52:08;;;;;;;12.63;5.57;;;14.70;99.90;;;;;;5079534;28;20033;-85
2023/05/23 06:54:34;;;;;;;13.20;5.03;;;14.60;99.90;;;;;;5081038;28;20039;-86
2023/05/23 06:56:59;;;;;;;8.82;4.65;;;14.70;99.90;;;;;;5079789;28;20025;-86
2023/05/23 06:59:27;;;;;;;9.18;4.38;;;14.60;99.90;;;;;;5052861;28;20089;-86
2023/05/23 07:01:53;;;;;;;8.48;4.40;;;14.70;99.90;;;;;;5069679;28;20515;-86
2023/05/23 07:04:18;;;;;;;9.98;4.68;;;14.70;99.90;;;;;;5057987;28;20123;-87
2023/05/23 07:06:44;;;;;;;11.57;5.13;;;14.70;99.90;;;;;;5042735;28;20392;-86
2023/05/23 07:09:10;;;;;;;8.30;4.60;;;14.70;99.90;;;;;;5059023;28;20453;-84
2023/05/23 07:11:38;;;;;;;8.05;4.63;;;14.70;99.90;;;;;;5074787;28;20024;-86
2023/05/23 07:14:04;;;;;;;10.40;5.00;;;14.80;99.90;;;;;;5074311;28;20024;-86
2023/05/23 07:16:30;;;;;;;7.55;4.70;;;14.80;99.50;;;;;;5074092;28;20040;-86
2023/05/23 07:18:56;;;;;;;10.55;4.75;;;14.80;99.10;;;;;;5074013;28;20044;-86
2023/05/23 07:21:21;;;;;;;9.98;4.88;;;14.80;98.50;;;;;;5073903;28;20381;-86
2023/05/23 07:23:47;;;;;;;8.30;4.35;;;14.80;98.00;;;;;;5057645;28;20028;-87
2023/05/23 07:26:13;;;;;;;9.38;4.95;;;14.80;97.90;;;;;;5057204;28;20079;-85
2023/05/23 07:28:38;;;;;;;8.63;4.32;;;14.80;97.70;;;;;;5057531;28;20074;-86
2023/05/23 07:31:04;;;;;;;11.95;5.18;;;14.80;97.50;;;;;;5073923;28;20024;-86
2023/05/23 07:33:33;;;;;;;9.98;5.35;;;14.80;97.30;;;;;;5073632;28;20025;-87
2023/05/23 07:35:59;;;;;;;8.70;4.65;;;14.90;97.20;;;;;;5057625;28;20128;-86
2023/05/23 07:38:25;;;;;;;9.43;5.13;;;14.90;97.20;;;;;;5056443;28;20051;-86
2023/05/23 07:40:51;;;;;;;9.25;4.57;;;14.80;97.00;;;;;;5057014;28;20028;-86
2023/05/23 07:43:17;;;;;;;15.65;5.22;;;14.90;97.10;;;;;;5073660;28;20021;-86
2023/05/23 07:45:43;;;;;;;10.77;4.50;;;14.90;97.10;;;;;;5071255;28;20119;-86
2023/05/23 07:48:11;;;;;;;10.27;4.60;;;15.00;97.20;;;;;;5054058;28;20097;-86
2023/05/23 07:50:39;;;;;;;8.02;4.53;;;15.10;97.10;;;;;;5056920;28;20032;-86
2023/05/23 07:53:05;;;;;;;9.40;4.45;;;15.10;97.00;;;;;;5057853;28;20013;-86
2023/05/23 07:55:31;;;;;;;8.00;4.30;;;15.20;97.00;;;;;;5053780;28;20025;-86
2023/05/23 07:57:56;;;;;;;9.57;4.97;;;15.30;97.00;;;;;;5039205;28;20073;-86
2023/05/23 08:00:22;;;;;;;9.35;4.60;;;15.40;96.80;;;;;;5052885;28;20481;-86
2023/05/23 08:02:48;;;;;;;7.93;4.30;;;15.50;96.60;;;;;;5068118;28;20080;-85
2023/05/23 08:05:18;;;;;;;8.57;4.00;;;15.60;96.60;;;;;;5098499;28;20005;-85
2023/05/23 08:07:43;;;;;;;9.43;4.60;;;15.70;96.70;;;;;;5098303;28;20015;-85
2023/05/23 08:10:09;;;;;;;8.90;4.72;;;15.80;96.70;;;;;;5098276;28;20028;-86
2023/05/23 08:12:38;;;;;;;8.55;4.10;;;15.80;96.60;;;;;;5078264;28;20037;-86
2023/05/23 08:15:04;;;;;;;7.25;3.72;;;15.90;96.80;;;;;;5074021;28;20036;-86
2023/05/23 08:17:30;;;;;;;9.52;3.72;;;15.80;96.50;;;;;;5056774;28;20036;-86
2023/05/23 08:19:55;;;;;;;7.97;3.45;;;15.70;96.50;;;;;;5073249;28;20044;-86
2023/05/23 08:22:21;;;;;;;7.88;3.47;;;15.50;96.70;;;;;;5056002;28;20028;-86
2023/05/23 08:24:47;;;;;;;7.47;3.28;;;15.50;97.00;;;;;;5074384;28;20024;-85
2023/05/23 08:27:13;;;;;;;6.95;3.00;;;15.50;97.10;;;;;;5072957;28;20039;-86
2023/05/23 08:29:38;;;;;;;6.90;2.72;;;15.60;97.00;;;;;;5072722;28;20063;-86
2023/05/23 08:32:04;;;;;;;6.03;2.80;;;15.60;96.90;;;;;;5055886;28;20028;-86
2023/05/23 08:34:30;;;;;;;6.72;2.55;;;15.60;96.60;;;;;;5072628;28;20380;-86
2023/05/23 08:36:56;;;;;;;6.18;2.45;;;15.60;96.40;;;;;;5056156;28;20065;-86
2023/05/23 08:39:21;;;;;;;5.20;2.42;;;15.50;96.10;;;;;;5072129;28;20031;-86
2023/05/23 08:41:48;;;;;;;6.97;2.30;;;15.50;96.20;;;;;;5072695;28;20052;-86
2023/05/23 08:44:14;;;;;;;7.60;2.75;;;15.60;95.90;;;;;;5072228;28;20476;-87
2023/05/23 08:46:45;;;;;;;5.78;2.40;;;15.70;96.00;;;;;;5072394;28;20036;-86
2023/05/23 08:49:13;;;;;;;9.93;2.88;;;15.70;96.10;;;;;;5072833;28;20488;-86
2023/05/23 08:51:42;;;;;;;10.65;2.95;;;15.80;95.70;;;;;;5072465;28;20024;-86
2023/05/23 08:54:09;;;;;;;7.60;2.78;;;15.80;95.80;;;;;;5056163;28;20036;-86
2023/05/23 08:56:36;;;;;;;6.68;2.45;;;15.90;95.80;;;;;;5072318;28;20124;-86
2023/05/23 08:59:02;;;;;;;8.38;3.30;;;15.80;95.80;;;;;;5055862;28;20036;-86
2023/05/23 09:01:30;;;;;;;12.52;2.97;;;15.80;95.50;;;;;;5072022;28;20024;-86
2023/05/23 09:03:59;;;;;;;11.70;3.30;;;15.80;95.20;;;;;;5073690;28;20025;-86
2023/05/23 09:06:25;;;;;;;12.13;3.13;;;15.80;95.00;;;;;;5072162;28;20107;-86
2023/05/23 09:08:50;;;;;;;9.43;3.22;;;15.80;95.00;;;;;;5073307;28;20110;-86
2023/05/23 09:11:16;;;;;;;8.65;2.85;;;15.80;94.70;;;;;;5055306;28;20059;-85
2023/05/23 09:13:42;;;;;;;6.50;2.47;;;15.80;95.00;;;;;;5072049;28;20028;-86
2023/05/23 09:16:20;;;;;;;7.47;2.90;;;16.00;95.20;;;;;;5055639;28;20083;-86
2023/05/23 09:18:46;;;;;;;8.80;2.65;;;16.10;94.70;;;;;;5071806;28;20476;-86
2023/05/23 09:21:12;;;;;;;11.52;3.22;;;16.00;94.10;;;;;;5072272;28;20029;-86
2023/05/23 09:23:40;;;;;;;10.88;3.38;;;16.00;93.90;;;;;;5072423;28;20070;-86
2023/05/23 09:26:07;;;;;;;9.38;2.63;;;16.00;93.70;;;;;;5073446;28;20024;-86
2023/05/23 09:28:34;;;;;;;9.35;2.80;;;15.90;93.60;;;;;;5073349;28;20380;-85
2023/05/23 09:31:02;;;;;;;7.18;3.00;;;16.00;93.70;;;;;;5072195;28;20047;-85
2023/05/23 09:33:48;;;;;;;10.93;2.95;;;16.10;93.90;;;;;;5072256;28;20024;-86
2023/05/23 09:36:14;;;;;;;7.75;2.90;;;16.10;93.70;;;;;;5072628;28;20365;-85
2023/05/23 09:38:42;;;;;;;9.23;3.10;;;16.20;93.60;;;;;;5072192;28;20025;-86
2023/05/23 09:41:11;;;;;;;8.10;3.10;;;16.20;93.50;;;;;;5055902;28;20037;-86
2023/05/23 09:43:37;;;;;;;9.35;2.90;;;16.20;93.40;;;;;;5073377;28;20031;-86
2023/05/23 09:46:07;;;;;;;11.00;3.05;;;16.30;93.10;;;;;;5065570;28;20014;-86
2023/05/23 09:48:34;;;;;;;8.98;3.03;;;16.30;92.90;;;;;;5076849;28;20013;-86
2023/05/23 09:51:12;;;;;;;9.23;2.85;;;16.20;92.80;;;;;;5093781;28;20047;-85
2023/05/23 09:53:39;;;;;;;12.23;2.92;;;16.20;92.90;;;;;;5093893;28;20025;-85
2023/05/23 09:56:06;;;;;;;7.07;2.70;;;16.10;93.00;;;;;;5065970;28;20025;-86
2023/05/23 09:58:33;;;;;;;11.32;3.30;;;16.20;93.20;;;;;;5056104;28;20036;-85
2023/05/23 10:01:02;;;;;;;12.60;3.10;;;16.20;93.00;;;;;;5057473;28;20053;-85
2023/05/23 10:03:48;;;;;;;10.50;3.20;;;16.20;92.80;;;;;;5055393;28;20027;-85
2023/05/23 10:06:23;;;;;;;11.45;3.50;;;16.30;92.90;;;;;;5056987;28;20469;-86
2023/05/23 10:09:02;;;;;;;8.43;2.58;;;16.20;92.60;;;;;;5056768;28;20025;-85
2023/05/23 10:11:34;;;;;;;6.38;2.75;;;16.20;92.30;;;;;;5056090;28;20017;-84
2023/05/23 10:14:10;;;;;;;7.10;2.50;;;16.20;91.90;;;;;;5072067;28;20124;-85
2023/05/23 10:17:21;;;;;;;10.95;3.42;;;16.20;91.70;;;;;;5074907;28;20043;-85
2023/05/23 10:19:56;;;;;;;9.13;3.28;;;16.30;91.30;;;;;;5057984;28;20052;-86
2023/05/23 10:22:24;;;;;;;8.35;3.15;;;16.30;90.80;;;;;;5075334;28;20498;-85
2023/05/23 10:24:50;;;;;;;10.05;3.38;;;16.30;90.50;;;;;;5058439;28;20025;-86
2023/05/23 10:27:15;;;;;;;10.73;3.22;;;16.30;90.50;;;;;;5074757;28;20135;-85
2023/05/23 10:29:42;;;;;;;9.75;3.40;;;16.40;90.40;;;;;;5058201;28;20056;-85
2023/05/23 10:32:10;;;;;;;9.35;3.45;;;16.40;90.50;;;;;;5052767;28;20055;-86
2023/05/23 10:34:48;;;;;;;8.02;3.30;;;16.50;90.30;;;;;;5054848;28;20071;-85
2023/05/23 10:37:34;;;;;;;9.65;3.35;;;16.60;90.30;;;;;;5071571;28;20132;-85
2023/05/23 10:40:06;;;;;;;12.23;3.40;;;16.70;90.40;;;;;;5075009;28;20468;-85
2023/05/23 10:42:49;;;;;;;12.38;3.50;;;16.80;90.30;;;;;;5074654;28;20024;-84
2023/05/23 10:45:20;;;;;;;12.80;3.63;;;16.90;90.50;;;;;;5074896;28;20100;-85
2023/05/23 10:47:47;;;;;;;8.45;3.40;;;17.00;89.50;;;;;;5075832;28;20456;-86
2023/05/23 10:50:28;;;;;;;11.18;3.60;;;17.10;88.70;;;;;;5075043;28;20466;-86
2023/05/23 10:52:54;;;;;;;;;;;17.10;87.80;;;;;;5075013;28;20050;-86
2023/05/23 10:55:20;;;;;;;11.80;3.60;;;17.20;88.40;;;;;;5058108;28;19909;-84
2023/05/23 10:57:46;;;;;;;11.05;3.60;;;17.20;88.70;;;;;;5074193;28;20032;-85
2023/05/23 11:00:15;;;;;;;9.13;3.40;;;17.20;89.10;;;;;;5057942;28;20090;-85
2023/05/23 11:02:58;;;;;;;7.95;3.33;;;17.30;90.00;;;;;;5075377;28;20021;-86
2023/05/23 11:05:30;;;;;;;9.50;3.13;;;17.40;90.20;;;;;;5075432;28;20100;-86
2023/05/23 11:08:13;;;;;;;11.60;3.03;;;17.40;90.10;;;;;;5074429;28;20078;-86
2023/05/23 11:11:01;;;;;;;7.07;2.95;;;17.50;89.10;;;;;;5074065;28;20032;-86
2023/05/23 11:13:55;;;;;;;7.43;2.83;;;17.60;88.90;;;;;;5057807;28;20435;-85
2023/05/23 11:16:38;;;;;;;9.30;3.35;;;17.70;88.80;;;;;;5075727;28;20520;-86
2023/05/23 11:19:26;;;;;;;8.88;2.78;;;17.80;88.50;;;;;;5074115;28;20052;-86
2023/05/23 11:22:00;;;;;;;11.35;4.03;;;17.80;88.30;;;;;;5075677;28;20059;-86
2023/05/23 11:24:52;;;;;;;8.85;3.25;;;17.80;87.40;;;;;;5074935;28;20043;-85
2023/05/23 11:27:25;;;;;;;8.73;2.92;;;17.80;86.80;;;;;;5075008;28;20032;-85
2023/05/23 11:30:13;;;;;;;9.38;3.10;;;17.80;87.90;;;;;;5077090;28;20491;-85
2023/05/23 11:32:39;;;;;;;10.13;3.35;;;17.90;87.90;;;;;;5095895;28;20012;-84
2023/05/23 11:35:10;;;;;;;9.43;3.00;;;18.00;87.60;;;;;;5098861;28;20023;-85
2023/05/23 11:37:37;;;;;;;11.73;2.80;;;18.10;87.60;;;;;;5097127;28;20040;-86
2023/05/23 11:40:32;;;;;;;13.20;4.03;;;18.20;87.60;;;;;;5090804;28;20028;-86
2023/05/23 11:42:59;;;;;;;10.50;3.13;;;18.10;85.00;;;;;;5076864;28;20028;-86
2023/05/23 11:45:29;;;;;;;9.95;3.13;;;17.90;84.70;;;;;;5073379;28;20097;-87
2023/05/23 11:47:55;;;;;;;7.07;2.53;;;17.80;85.10;;;;;;5057140;28;20036;-85
2023/05/23 11:50:21;;;;;;;10.75;3.00;;;17.80;84.40;;;;;;5056594;28;20508;-86
2023/05/23 11:52:50;;;;;;;9.52;3.45;;;17.80;83.90;;;;;;5073135;28;20025;-85
2023/05/23 11:55:18;;;;;;;8.93;2.92;;;17.70;83.10;;;;;;5057318;28;20047;-86
2023/05/23 11:57:43;;;;;;;12.60;3.28;;;17.70;82.60;;;;;;5056815;28;20025;-85
2023/05/23 12:00:10;;;;;;;6.03;2.50;;;17.60;82.80;;;;;;5073715;28;20035;-86
2023/05/23 12:02:42;;;;;;;7.18;2.97;;;17.70;83.00;;;;;;5070286;28;20090;-86
2023/05/23 12:05:10;;;;;;;8.32;3.10;;;17.70;83.00;;;;;;5053666;28;20021;-85
2023/05/23 12:07:42;;;;;;;9.55;2.95;;;17.70;83.50;;;;;;5069909;28;20029;-86
2023/05/23 12:10:13;;;;;;;9.48;2.83;;;17.70;84.70;;;;;;5052918;28;20029;-86
2023/05/23 12:12:41;;;;;;;8.18;2.88;;;17.80;85.10;;;;;;5072834;28;20086;-86
2023/05/23 12:15:09;;;;;;;5.90;2.38;;;17.80;84.80;;;;;;5073202;28;20429;-86
2023/05/23 12:17:36;;;;;;;6.20;2.58;;;17.90;84.70;;;;;;5072254;28;20021;-86
2023/05/23 12:20:04;;;;;;;8.65;2.75;;;17.90;82.00;;;;;;5072169;28;20045;-86
2023/05/23 12:22:30;;;;;;;9.70;2.70;;;17.90;82.00;;;;;;5072867;28;20025;-85
2023/05/23 12:24:56;;;;;;;8.43;2.53;;;18.00;82.00;;;;;;5072878;28;20031;-86
2023/05/23 12:27:30;;;;;;;6.70;2.40;;;18.00;82.20;;;;;;5072648;28;20063;-86
2023/05/23 12:30:06;;;;;;;6.35;2.17;;;17.90;82.60;;;;;;5073835;28;20048;-85
2023/05/23 12:32:32;;;;;;;7.47;2.85;;;17.90;81.60;;;;;;5072621;28;20140;-86
2023/05/23 12:34:58;;;;;;;9.23;2.75;;;17.80;80.70;;;;;;5068335;28;20035;-86
2023/05/23 12:37:24;;;;;;;7.53;2.58;;;17.80;81.00;;;;;;5055843;28;20127;-86
2023/05/23 12:39:50;;;;;;;6.75;2.30;;;17.80;81.50;;;;;;5072474;28;20049;-85
2023/05/23 12:42:16;;;;;;;7.65;2.63;;;17.80;80.30;;;;;;5072935;28;20056;-86
2023/05/23 12:44:46;;;;;;;9.57;2.38;;;17.70;80.20;;;;;;5049826;28;20021;-85
2023/05/23 12:47:14;;;;;;;6.68;2.53;;;17.80;80.80;;;;;;5042236;28;20029;-86
2023/05/23 12:49:39;;;;;;;7.00;2.47;;;17.80;81.60;;;;;;5070111;28;20076;-86